createdAt,value
2022-08-23T00:01:00.224Z,7.30
2022-08-23T00:03:47.590Z,5.75
2022-08-23T00:06:35.687Z,7.20
2022-08-23T00:09:25.939Z,9.02
2022-08-23T00:12:18.022Z,6.68
2022-08-23T00:15:07.308Z,8.07
2022-08-23T00:17:55.179Z,7.75
2022-08-23T00:20:42.375Z,6.25
2022-08-23T00:23:29.405Z,6.95
2022-08-23T00:26:17.948Z,5.25
2022-08-23T00:29:06.637Z,6.00
2022-08-23T00:31:54.320Z,6.55
2022-08-23T00:34:41.989Z,6.25
2022-08-23T00:37:31.358Z,5.22
2022-08-23T00:40:20.169Z,7.65
2022-08-23T00:43:25.265Z,5.97
2022-08-23T00:46:41.588Z,5.75
2022-08-23T00:49:28.603Z,8.88
2022-08-23T00:52:22.332Z,5.53
2022-08-23T00:57:56.484Z,6.07
2022-08-23T01:00:43.314Z,6.18
2022-08-23T01:03:38.792Z,6.30
2022-08-23T01:06:36.313Z,7.28
2022-08-23T01:09:23.798Z,8.13
2022-08-23T01:12:19.195Z,7.63
2022-08-23T01:15:25.026Z,8.00
2022-08-23T01:18:14.619Z,6.85
2022-08-23T01:21:06.798Z,6.70
2022-08-23T01:24:03.368Z,7.85
2022-08-23T01:29:37.759Z,6.88
2022-08-23T01:32:25.773Z,7.13
2022-08-23T01:35:14.381Z,8.18
2022-08-23T01:38:01.983Z,10.23
2022-08-23T01:40:51.931Z,7.63
2022-08-23T01:43:39.672Z,6.95
2022-08-23T01:46:28.332Z,8.48
2022-08-23T01:49:17.603Z,6.65
2022-08-23T01:52:05.902Z,8.95
2022-08-23T01:54:53.380Z,6.43
2022-08-23T01:57:47.771Z,8.70
2022-08-23T02:00:39.900Z,9.50
2022-08-23T02:03:29.359Z,9.52
2022-08-23T02:06:17.068Z,6.68
2022-08-23T02:09:06.025Z,6.40
2022-08-23T02:12:06.878Z,6.70
2022-08-23T02:14:56.960Z,6.80
2022-08-23T02:17:47.300Z,6.30
2022-08-23T02:20:35.023Z,7.75
2022-08-23T02:23:25.283Z,7.53
2022-08-23T02:26:13.180Z,5.35
2022-08-23T02:29:06.545Z,8.63
2022-08-23T02:31:55.730Z,8.20
2022-08-23T02:34:44.511Z,6.20
2022-08-23T02:37:39.383Z,7.78
2022-08-23T02:40:26.388Z,7.82
2022-08-23T02:43:13.876Z,5.70
2022-08-23T02:46:01.544Z,6.05
2022-08-23T02:48:51.104Z,7.20
2022-08-23T02:51:39.761Z,8.52
2022-08-23T02:54:27.107Z,5.82
2022-08-23T02:57:13.827Z,8.55
2022-08-23T03:00:01.457Z,8.27
2022-08-23T03:02:52.013Z,12.50
2022-08-23T03:05:41.159Z,13.00
2022-08-23T03:08:27.968Z,12.75
2022-08-23T03:11:18.142Z,8.85
2022-08-23T03:14:07.479Z,18.35
2022-08-23T03:16:57.442Z,10.70
2022-08-23T03:19:45.470Z,14.38
2022-08-23T03:22:34.453Z,11.27
2022-08-23T03:25:21.869Z,12.60
2022-08-23T03:28:21.822Z,6.43
2022-08-23T03:31:10.734Z,7.90
2022-08-23T03:34:07.354Z,14.55
2022-08-23T03:36:54.705Z,6.88
2022-08-23T03:39:43.151Z,7.57
2022-08-23T03:42:31.223Z,12.30
2022-08-23T03:45:22.417Z,8.07
2022-08-23T03:48:10.351Z,12.45
2022-08-23T03:50:57.867Z,10.07
2022-08-23T03:53:46.732Z,11.30
2022-08-23T03:56:38.166Z,6.93
2022-08-23T03:59:25.051Z,8.25
2022-08-23T04:02:12.252Z,6.80
2022-08-23T04:04:59.501Z,8.85
2022-08-23T04:08:11.743Z,10.80
2022-08-23T04:10:58.923Z,11.23
2022-08-23T04:13:47.273Z,10.88
2022-08-23T04:16:37.663Z,8.13
2022-08-23T04:19:25.388Z,13.40
2022-08-23T04:22:21.525Z,6.43
2022-08-23T04:25:32.366Z,11.85
2022-08-23T04:28:17.047Z,12.23
2022-08-23T04:31:06.428Z,9.45
2022-08-23T04:33:54.828Z,11.18
2022-08-23T04:36:47.859Z,6.63
2022-08-23T04:39:55.013Z,8.98
2022-08-23T04:42:42.846Z,10.57
2022-08-23T04:45:32.701Z,10.27
2022-08-23T04:48:21.369Z,12.13
2022-08-23T04:51:10.232Z,9.35
2022-08-23T04:53:58.621Z,9.45
2022-08-23T04:57:05.534Z,11.68
2022-08-23T04:59:55.045Z,10.77
2022-08-23T05:02:42.723Z,9.57
2022-08-23T05:05:32.396Z,13.25
2022-08-23T05:08:20.063Z,15.80
2022-08-23T05:11:09.443Z,16.20
2022-08-23T05:13:57.747Z,16.33
2022-08-23T05:16:44.769Z,16.00
2022-08-23T05:19:31.644Z,19.63
2022-08-23T05:22:21.069Z,12.48
2022-08-23T05:25:49.093Z,12.40
2022-08-23T05:28:48.952Z,19.77
2022-08-23T05:31:38.289Z,11.33
2022-08-23T05:34:25.591Z,16.48
2022-08-23T05:37:16.719Z,12.02
2022-08-23T05:40:05.718Z,10.15
2022-08-23T05:42:59.719Z,9.77
2022-08-23T05:45:47.120Z,13.18
2022-08-23T05:48:36.501Z,8.95
2022-08-23T05:51:28.965Z,9.82
2022-08-23T05:54:16.915Z,10.60
2022-08-23T05:57:10.643Z,10.82
2022-08-23T06:00:00.682Z,9.80
2022-08-23T06:02:49.267Z,10.13
2022-08-23T06:05:42.359Z,12.27
2022-08-23T06:08:35.202Z,11.07
2022-08-23T06:11:24.766Z,10.18
2022-08-23T06:14:14.521Z,8.05
2022-08-23T06:17:03.608Z,8.25
2022-08-23T06:19:50.995Z,7.57
2022-08-23T06:22:45.003Z,7.70
2022-08-23T06:25:32.457Z,8.35
2022-08-23T06:28:30.074Z,9.75
2022-08-23T06:31:40.100Z,8.10
2022-08-23T06:34:33.825Z,8.48
2022-08-23T06:37:40.783Z,9.43
2022-08-23T06:40:48.210Z,8.15
2022-08-23T06:43:55.000Z,8.13
2022-08-23T06:46:43.521Z,11.90
2022-08-23T06:49:30.757Z,7.40
2022-08-23T06:52:18.575Z,7.65
2022-08-23T06:55:14.587Z,5.97
2022-08-23T06:58:13.256Z,5.95
2022-08-23T07:01:44.685Z,4.22
2022-08-23T07:04:41.457Z,4.88
2022-08-23T07:07:48.444Z,6.53
2022-08-23T07:10:35.556Z,4.18
2022-08-23T07:13:22.805Z,8.45
2022-08-23T07:16:10.149Z,5.50
2022-08-23T07:18:57.370Z,7.25
2022-08-23T07:21:45.989Z,5.53
2022-08-23T07:24:35.839Z,7.88
2022-08-23T07:27:24.015Z,4.47
2022-08-23T07:30:18.720Z,4.55
2022-08-23T07:33:07.320Z,4.28
2022-08-23T07:35:58.020Z,5.03
2022-08-23T07:38:47.951Z,4.03
2022-08-23T07:41:38.833Z,5.35
2022-08-23T07:44:27.504Z,4.75
2022-08-23T07:47:15.144Z,5.53
2022-08-23T07:50:02.324Z,5.57
2022-08-23T07:52:52.215Z,5.93
2022-08-23T07:55:42.080Z,6.68
2022-08-23T07:58:50.252Z,6.88
2022-08-23T08:01:52.821Z,6.85
2022-08-23T08:04:39.915Z,6.80
2022-08-23T08:07:27.553Z,5.18
2022-08-23T08:10:20.991Z,4.40
2022-08-23T08:13:11.307Z,5.97
2022-08-23T08:15:58.714Z,3.80
2022-08-23T08:18:49.225Z,5.45
2022-08-23T08:21:56.639Z,5.50
2022-08-23T08:25:03.415Z,4.60
2022-08-23T08:27:50.467Z,10.50
2022-08-23T08:30:39.268Z,4.53
2022-08-23T08:33:30.685Z,4.68
2022-08-23T08:36:36.359Z,5.43
2022-08-23T08:39:30.498Z,5.18
2022-08-23T08:42:34.546Z,5.35
2022-08-23T08:45:27.020Z,3.22
2022-08-23T08:48:23.633Z,3.85
2022-08-23T08:51:21.701Z,6.13
2022-08-23T08:54:14.139Z,5.45
2022-08-23T08:57:07.787Z,4.55
2022-08-23T09:00:07.277Z,4.75
2022-08-23T09:02:59.844Z,4.38
2022-08-23T09:05:56.397Z,4.07
2022-08-23T09:08:58.216Z,3.47
2022-08-23T09:11:56.771Z,5.05
2022-08-23T09:14:57.370Z,7.93
2022-08-23T09:17:50.887Z,4.55
2022-08-23T09:20:40.321Z,7.47
2022-08-23T09:23:35.911Z,5.05
2022-08-23T09:26:30.380Z,5.72
2022-08-23T09:29:24.139Z,5.10
2022-08-23T09:32:30.382Z,3.92
2022-08-23T09:35:20.391Z,5.25
2022-08-23T09:38:20.969Z,4.93
2022-08-23T09:41:20.844Z,3.55
2022-08-23T09:44:16.470Z,5.75
2022-08-23T09:47:08.675Z,4.57
2022-08-23T09:50:10.864Z,3.92
2022-08-23T09:53:04.463Z,6.03
2022-08-23T09:55:56.433Z,4.18
2022-08-23T09:58:51.199Z,2.92
2022-08-23T10:01:52.043Z,4.20
2022-08-23T10:04:46.189Z,5.85
2022-08-23T10:07:40.310Z,4.80
2022-08-23T10:10:37.802Z,4.13
2022-08-23T10:13:27.825Z,5.55
2022-08-23T10:16:29.189Z,5.22
2022-08-23T10:19:31.107Z,6.75
2022-08-23T10:22:23.267Z,4.50
2022-08-23T10:25:34.696Z,19.35
2022-08-23T10:28:49.894Z,4.28
2022-08-23T10:31:46.943Z,6.47
2022-08-23T10:34:50.851Z,4.45
2022-08-23T10:37:53.572Z,4.22
2022-08-23T10:40:52.167Z,4.20
2022-08-23T10:43:46.534Z,4.35
2022-08-23T10:46:46.459Z,3.45
2022-08-23T10:49:37.877Z,5.45
2022-08-23T10:52:31.226Z,3.78
2022-08-23T10:55:36.875Z,5.18
2022-08-23T10:58:29.236Z,4.63
2022-08-23T11:01:22.901Z,6.20
2022-08-23T11:04:26.513Z,2.80
2022-08-23T11:07:37.337Z,6.05
2022-08-23T11:10:56.134Z,3.45
2022-08-23T11:13:55.042Z,4.43
2022-08-23T11:16:48.791Z,9.45
2022-08-23T11:19:53.737Z,4.82
2022-08-23T11:23:13.041Z,6.28
2022-08-23T11:26:00.525Z,5.75
2022-08-23T11:28:47.982Z,4.53
2022-08-23T11:31:39.800Z,4.30
2022-08-23T11:34:32.116Z,3.25
2022-08-23T11:37:49.271Z,3.58
2022-08-23T11:40:59.950Z,3.97
2022-08-23T11:44:23.011Z,4.93
2022-08-23T11:47:12.548Z,1.13
2022-08-23T11:50:19.400Z,4.57
2022-08-23T11:53:31.789Z,3.25
2022-08-23T11:56:34.113Z,2.53
2022-08-23T11:59:41.656Z,4.47
2022-08-23T12:02:37.233Z,5.22
2022-08-23T12:05:42.322Z,4.30
2022-08-23T12:08:46.756Z,2.00
2022-08-23T12:12:03.563Z,2.28
2022-08-23T12:14:50.796Z,4.00
2022-08-23T12:17:58.510Z,3.15
2022-08-23T12:20:48.326Z,3.25
2022-08-23T12:23:49.038Z,4.07
2022-08-23T12:26:46.682Z,6.18
2022-08-23T12:29:48.501Z,3.13
2022-08-23T12:32:44.315Z,3.05
2022-08-23T12:35:40.384Z,1.85
2022-08-23T12:38:47.072Z,2.72
2022-08-23T12:41:51.362Z,3.50
2022-08-23T12:44:38.740Z,1.83
2022-08-23T12:47:26.412Z,2.83
2022-08-23T12:50:26.103Z,2.63
2022-08-23T12:53:30.015Z,3.63
2022-08-23T12:56:22.809Z,2.63
2022-08-23T12:59:37.625Z,4.10
2022-08-23T13:02:27.795Z,2.55
2022-08-23T13:05:23.877Z,4.80
2022-08-23T13:08:15.016Z,3.80
2022-08-23T13:11:07.659Z,8.73
2022-08-23T13:16:46.952Z,4.22
2022-08-23T13:19:34.872Z,3.08
2022-08-23T13:22:25.122Z,3.75
2022-08-23T13:25:29.228Z,3.53
2022-08-23T13:28:24.212Z,4.20
2022-08-23T13:33:59.466Z,3.33
2022-08-23T13:36:49.115Z,2.92
2022-08-23T13:39:39.625Z,2.08
2022-08-23T13:42:32.260Z,4.00
2022-08-23T13:45:22.898Z,2.70
2022-08-23T13:48:14.096Z,2.65
2022-08-23T13:51:21.875Z,4.07
2022-08-23T13:54:08.551Z,3.85
2022-08-23T13:57:00.478Z,4.65
2022-08-23T13:59:52.848Z,3.42
2022-08-23T14:02:40.795Z,7.05
2022-08-23T14:05:27.873Z,5.32
2022-08-23T14:08:21.623Z,8.15
2022-08-23T14:11:10.663Z,1.88
2022-08-23T14:13:57.577Z,4.07
2022-08-23T14:16:44.723Z,2.88
2022-08-23T14:22:40.716Z,8.88
2022-08-23T14:25:29.916Z,2.00
2022-08-23T14:28:18.782Z,3.10
2022-08-23T14:31:05.882Z,3.20
2022-08-23T14:33:55.272Z,4.78
2022-08-23T14:38:00.308Z,1.67
2022-08-23T14:39:52.613Z,5.05
2022-08-23T14:42:40.996Z,4.85
2022-08-23T14:45:27.846Z,1.77
2022-08-23T14:48:15.051Z,2.60
2022-08-23T14:51:02.442Z,2.40
2022-08-23T14:53:49.503Z,9.82
2022-08-23T14:56:36.714Z,1.85
2022-08-23T14:59:26.339Z,2.78
2022-08-23T15:02:20.399Z,2.15
2022-08-23T15:05:09.017Z,3.67
2022-08-23T15:07:56.170Z,2.28
2022-08-23T15:11:33.198Z,3.78
2022-08-23T15:13:55.321Z,2.65
2022-08-23T15:16:44.695Z,4.80
2022-08-23T15:19:31.864Z,3.22
2022-08-23T15:22:21.747Z,3.13
2022-08-23T15:25:10.212Z,3.30
2022-08-23T15:27:57.660Z,2.33
2022-08-23T15:30:47.040Z,2.25
2022-08-23T15:33:35.591Z,4.15
2022-08-23T15:36:22.885Z,1.85
2022-08-23T15:39:11.410Z,3.13
2022-08-23T15:41:58.656Z,2.42
2022-08-23T15:44:45.515Z,2.95
2022-08-23T15:47:37.981Z,4.20
2022-08-23T15:50:31.342Z,2.30
2022-08-23T15:56:11.130Z,1.50
2022-08-23T15:58:58.548Z,4.15
2022-08-23T16:01:46.083Z,5.03
2022-08-23T16:04:35.994Z,3.75
2022-08-23T16:07:24.802Z,5.38
2022-08-23T16:10:14.512Z,2.35
2022-08-23T16:13:01.776Z,1.80
2022-08-23T16:15:49.232Z,2.10
2022-08-23T16:18:36.069Z,2.92
2022-08-23T16:21:25.263Z,2.22
2022-08-23T16:24:14.281Z,2.58
2022-08-23T16:27:01.231Z,2.83
2022-08-23T16:29:48.486Z,3.17
2022-08-23T16:32:35.890Z,2.88
2022-08-23T16:35:22.959Z,4.75
2022-08-23T16:38:12.772Z,4.57
2022-08-23T16:41:01.624Z,5.30
2022-08-23T16:43:49.040Z,2.83
2022-08-23T16:46:36.452Z,4.60
2022-08-23T16:49:23.410Z,7.13
2022-08-23T16:52:11.912Z,4.43
2022-08-23T16:54:59.277Z,3.00
2022-08-23T16:57:48.215Z,3.13
2022-08-23T17:00:36.572Z,3.83
2022-08-23T17:03:27.196Z,4.47
2022-08-23T17:06:15.168Z,5.38
2022-08-23T17:09:02.982Z,2.92
2022-08-23T17:11:52.374Z,3.92
2022-08-23T17:14:41.262Z,4.03
2022-08-23T17:17:28.358Z,3.55
2022-08-23T17:20:17.242Z,4.47
2022-08-23T17:23:05.952Z,4.90
2022-08-23T17:25:53.422Z,4.38
2022-08-23T17:28:40.374Z,4.45
2022-08-23T17:31:29.225Z,2.40
2022-08-23T17:34:16.507Z,3.03
2022-08-23T17:37:03.558Z,2.75
2022-08-23T17:39:51.329Z,3.45
2022-08-23T17:42:40.956Z,3.08
2022-08-23T17:45:28.991Z,3.90
2022-08-23T17:48:19.509Z,2.83
2022-08-23T17:51:06.521Z,5.72
2022-08-23T17:53:53.633Z,5.40
2022-08-23T17:56:40.559Z,4.68
2022-08-23T17:59:28.810Z,3.10
2022-08-23T18:02:16.511Z,3.65
2022-08-23T18:05:05.458Z,4.53
2022-08-23T18:07:52.943Z,4.68
2022-08-23T18:10:40.268Z,4.22
2022-08-23T18:13:27.307Z,6.45
2022-08-23T18:16:14.532Z,5.13
2022-08-23T18:19:03.387Z,6.40
2022-08-23T18:21:51.578Z,3.35
2022-08-23T18:24:38.817Z,4.18
2022-08-23T18:27:39.561Z,5.82
2022-08-23T18:30:25.742Z,4.18
2022-08-23T18:33:12.661Z,7.85
2022-08-23T18:36:00.093Z,7.47
2022-08-23T18:38:48.672Z,9.00
2022-08-23T18:41:35.715Z,7.28
2022-08-23T18:44:23.200Z,10.77
2022-08-23T18:47:10.468Z,10.18
2022-08-23T18:49:57.677Z,8.77
2022-08-23T18:52:45.197Z,5.15
2022-08-23T18:55:33.987Z,6.82
2022-08-23T18:58:22.908Z,8.82
2022-08-23T19:01:22.530Z,10.45
2022-08-23T19:04:11.201Z,10.73
2022-08-23T19:06:58.505Z,6.72
2022-08-23T19:09:46.023Z,6.05
2022-08-23T19:12:34.690Z,11.48
2022-08-23T19:15:24.880Z,7.55
2022-08-23T19:18:16.015Z,11.30
2022-08-23T19:21:04.926Z,10.73
2022-08-23T19:23:54.200Z,11.18
2022-08-23T19:26:44.457Z,8.05
2022-08-23T19:29:33.180Z,11.05
2022-08-23T19:32:20.134Z,13.27
2022-08-23T19:35:09.407Z,9.13
2022-08-23T19:37:56.491Z,8.80
2022-08-23T19:40:44.210Z,8.52
2022-08-23T19:43:31.590Z,14.10
2022-08-23T19:46:20.354Z,16.20
2022-08-23T19:49:07.347Z,20.35
2022-08-23T19:51:54.343Z,10.70
2022-08-23T19:54:42.062Z,9.25
2022-08-23T19:57:32.956Z,13.02
2022-08-23T20:00:20.078Z,11.32
2022-08-23T20:03:08.542Z,13.45
2022-08-23T20:05:55.796Z,8.55
2022-08-23T20:08:42.781Z,12.70
2022-08-23T20:11:29.671Z,16.98
2022-08-23T20:14:16.969Z,17.50
2022-08-23T20:17:07.289Z,11.90
2022-08-23T20:19:55.801Z,9.20
2022-08-23T20:22:56.796Z,10.63
2022-08-23T20:25:42.912Z,11.77
2022-08-23T20:28:28.735Z,16.73
2022-08-23T20:31:17.571Z,13.05
2022-08-23T20:34:06.565Z,13.65
2022-08-23T20:36:56.149Z,15.48
2022-08-23T20:39:43.611Z,13.15
2022-08-23T20:42:30.736Z,13.32
2022-08-23T20:45:17.827Z,23.08
2022-08-23T20:48:05.166Z,22.15
2022-08-23T20:53:48.727Z,26.08
2022-08-23T20:56:37.051Z,36.92
2022-08-23T20:59:23.901Z,36.35
2022-08-23T21:02:11.020Z,29.17
2022-08-23T21:04:57.850Z,27.80
2022-08-23T21:07:44.956Z,22.98
2022-08-23T21:10:33.840Z,20.08
2022-08-23T21:13:20.674Z,18.27
2022-08-23T21:16:09.418Z,14.00
2022-08-23T21:18:56.917Z,14.60
2022-08-23T21:21:44.523Z,13.52
2022-08-23T21:24:32.264Z,13.40
2022-08-23T21:27:20.934Z,20.73
2022-08-23T21:30:10.420Z,19.73
2022-08-23T21:32:57.297Z,19.80
2022-08-23T21:35:44.361Z,19.42
2022-08-23T21:38:31.898Z,14.80
2022-08-23T21:41:36.162Z,12.32
2022-08-23T21:44:25.291Z,14.15
2022-08-23T21:47:12.490Z,15.27
2022-08-23T21:49:59.556Z,18.80
2022-08-23T21:52:54.629Z,12.52
2022-08-23T21:55:44.405Z,16.23
2022-08-23T21:58:32.905Z,10.68
2022-08-23T22:01:21.376Z,11.30
2022-08-23T22:04:10.226Z,11.35
2022-08-23T22:07:00.841Z,9.68
2022-08-23T22:09:48.650Z,8.63
2022-08-23T22:12:35.398Z,10.80
2022-08-23T22:15:22.359Z,11.75
2022-08-23T22:18:11.119Z,9.68
2022-08-23T22:20:59.401Z,7.45
2022-08-23T22:23:46.520Z,7.78
2022-08-23T22:26:33.760Z,7.60
2022-08-23T22:29:21.161Z,11.18
2022-08-23T22:32:08.744Z,8.25
2022-08-23T22:34:58.075Z,7.22
2022-08-23T22:38:03.628Z,8.15
2022-08-23T22:40:53.875Z,7.60
2022-08-23T22:43:41.107Z,5.25
2022-08-23T22:46:29.407Z,5.13
2022-08-23T22:49:19.696Z,5.68
2022-08-23T22:52:08.604Z,6.35
2022-08-23T22:54:55.716Z,6.68
2022-08-23T22:57:43.091Z,7.72
2022-08-23T23:00:30.238Z,7.15
2022-08-23T23:03:18.748Z,13.98
2022-08-23T23:06:05.701Z,9.85
2022-08-23T23:08:54.892Z,7.28
2022-08-23T23:11:43.188Z,4.93
2022-08-23T23:14:30.003Z,4.85
2022-08-23T23:17:17.221Z,6.28
2022-08-23T23:20:19.075Z,7.43
2022-08-23T23:23:05.134Z,6.68
2022-08-23T23:25:52.355Z,5.50
2022-08-23T23:28:39.575Z,4.43
2022-08-23T23:31:27.011Z,7.38
2022-08-23T23:34:14.268Z,11.73
2022-08-23T23:37:01.259Z,8.23
2022-08-23T23:39:49.936Z,5.22
2022-08-23T23:42:39.056Z,4.88
2022-08-23T23:45:26.018Z,9.05
2022-08-23T23:48:12.919Z,5.80
2022-08-23T23:50:59.770Z,6.68
2022-08-23T23:53:47.509Z,7.00
2022-08-23T23:56:34.434Z,5.57
2022-08-23T23:59:22.700Z,7.75
